sensor_id;sensor_type;location;lat;lon;timestamp;temperature;humidity
18717;DHT22;9487;50.892;6.906;2023-06-14T00:00:01;21.50;58.00
18717;DHT22;9487;50.892;6.906;2023-06-14T00:02:29;21.20;60.20
18717;DHT22;9487;50.892;6.906;2023-06-14T00:04:57;21.30;60.50
18717;DHT22;9487;50.892;6.906;2023-06-14T00:07:35;20.90;64.50
18717;DHT22;9487;50.892;6.906;2023-06-14T00:10:05;20.70;68.20
18717;DHT22;9487;50.892;6.906;2023-06-14T00:12:32;20.70;69.40
18717;DHT22;9487;50.892;6.906;2023-06-14T00:15:00;20.70;67.80
18717;DHT22;9487;50.892;6.906;2023-06-14T00:17:28;20.60;70.60
18717;DHT22;9487;50.892;6.906;2023-06-14T00:19:56;20.60;71.90
18717;DHT22;9487;50.892;6.906;2023-06-14T00:22:24;20.60;72.20
18717;DHT22;9487;50.892;6.906;2023-06-14T00:24:55;20.60;73.20
18717;DHT22;9487;50.892;6.906;2023-06-14T00:27:22;20.80;73.00
18717;DHT22;9487;50.892;6.906;2023-06-14T00:29:50;21.00;73.00
18717;DHT22;9487;50.892;6.906;2023-06-14T00:32:18;20.90;73.20
18717;DHT22;9487;50.892;6.906;2023-06-14T00:34:50;20.70;74.20
18717;DHT22;9487;50.892;6.906;2023-06-14T00:37:16;20.80;73.50
18717;DHT22;9487;50.892;6.906;2023-06-14T00:39:43;20.90;74.80
18717;DHT22;9487;50.892;6.906;2023-06-14T00:42:23;20.80;74.00
18717;DHT22;9487;50.892;6.906;2023-06-14T00:44:50;20.70;73.20
18717;DHT22;9487;50.892;6.906;2023-06-14T00:47:17;20.60;75.30
18717;DHT22;9487;50.892;6.906;2023-06-14T00:49:45;20.60;76.50
18717;DHT22;9487;50.892;6.906;2023-06-14T00:52:13;20.70;77.50
18717;DHT22;9487;50.892;6.906;2023-06-14T00:54:41;20.80;76.50
18717;DHT22;9487;50.892;6.906;2023-06-14T00:57:09;20.80;77.60
18717;DHT22;9487;50.892;6.906;2023-06-14T00:59:43;20.70;77.20
18717;DHT22;9487;50.892;6.906;2023-06-14T01:02:10;20.90;76.60
18717;DHT22;9487;50.892;6.906;2023-06-14T01:04:38;21.00;76.30
18717;DHT22;9487;50.892;6.906;2023-06-14T01:07:10;21.10;75.60
18717;DHT22;9487;50.892;6.906;2023-06-14T01:09:48;21.10;74.80
18717;DHT22;9487;50.892;6.906;2023-06-14T01:12:36;21.10;75.40
18717;DHT22;9487;50.892;6.906;2023-06-14T01:15:07;21.00;76.20
18717;DHT22;9487;50.892;6.906;2023-06-14T01:17:35;20.40;79.90
18717;DHT22;9487;50.892;6.906;2023-06-14T01:20:10;20.40;81.30
18717;DHT22;9487;50.892;6.906;2023-06-14T01:22:49;20.30;83.00
18717;DHT22;9487;50.892;6.906;2023-06-14T01:25:17;20.10;85.60
18717;DHT22;9487;50.892;6.906;2023-06-14T01:27:47;20.00;86.70
18717;DHT22;9487;50.892;6.906;2023-06-14T01:30:14;19.90;90.00
18717;DHT22;9487;50.892;6.906;2023-06-14T01:32:42;19.80;91.00
18717;DHT22;9487;50.892;6.906;2023-06-14T01:35:10;19.60;93.70
18717;DHT22;9487;50.892;6.906;2023-06-14T01:37:37;19.40;94.70
18717;DHT22;9487;50.892;6.906;2023-06-14T01:40:07;19.40;95.00
18717;DHT22;9487;50.892;6.906;2023-06-14T01:42:36;19.80;95.40
18717;DHT22;9487;50.892;6.906;2023-06-14T01:45:06;20.10;94.70
18717;DHT22;9487;50.892;6.906;2023-06-14T01:47:36;20.30;93.10
18717;DHT22;9487;50.892;6.906;2023-06-14T01:50:05;20.50;92.60
18717;DHT22;9487;50.892;6.906;2023-06-14T01:52:32;20.60;92.40
18717;DHT22;9487;50.892;6.906;2023-06-14T01:54:59;20.60;92.30
18717;DHT22;9487;50.892;6.906;2023-06-14T01:57:29;20.70;92.00
18717;DHT22;9487;50.892;6.906;2023-06-14T01:59:57;20.60;92.20
18717;DHT22;9487;50.892;6.906;2023-06-14T02:02:24;20.00;94.70
18717;DHT22;9487;50.892;6.906;2023-06-14T02:04:51;19.80;95.60
18717;DHT22;9487;50.892;6.906;2023-06-14T02:07:22;19.50;99.20
18717;DHT22;9487;50.892;6.906;2023-06-14T02:09:50;19.10;99.90
18717;DHT22;9487;50.892;6.906;2023-06-14T02:12:18;19.00;99.90
18717;DHT22;9487;50.892;6.906;2023-06-14T02:14:46;19.00;99.90
18717;DHT22;9487;50.892;6.906;2023-06-14T02:17:15;19.30;99.90
18717;DHT22;9487;50.892;6.906;2023-06-14T02:19:41;19.40;99.90
18717;DHT22;9487;50.892;6.906;2023-06-14T02:22:09;19.60;99.90
18717;DHT22;9487;50.892;6.906;2023-06-14T02:24:36;19.70;99.90
18717;DHT22;9487;50.892;6.906;2023-06-14T02:27:04;19.80;99.90
18717;DHT22;9487;50.892;6.906;2023-06-14T02:29:32;19.80;99.90
18717;DHT22;9487;50.892;6.906;2023-06-14T02:32:00;19.70;99.90
18717;DHT22;9487;50.892;6.906;2023-06-14T02:34:27;19.40;99.90
18717;DHT22;9487;50.892;6.906;2023-06-14T02:36:54;19.40;99.90
18717;DHT22;9487;50.892;6.906;2023-06-14T02:39:25;19.40;99.90
18717;DHT22;9487;50.892;6.906;2023-06-14T02:41:53;19.00;99.90
18717;DHT22;9487;50.892;6.906;2023-06-14T02:44:24;18.60;99.90
18717;DHT22;9487;50.892;6.906;2023-06-14T02:46:52;18.80;99.90
18717;DHT22;9487;50.892;6.906;2023-06-14T02:49:22;18.80;99.90
18717;DHT22;9487;50.892;6.906;2023-06-14T02:51:49;19.00;99.90
18717;DHT22;9487;50.892;6.906;2023-06-14T02:54:16;18.80;99.90
18717;DHT22;9487;50.892;6.906;2023-06-14T02:56:44;18.90;99.90
18717;DHT22;9487;50.892;6.906;2023-06-14T02:59:12;19.00;99.90
18717;DHT22;9487;50.892;6.906;2023-06-14T03:01:40;19.10;99.90
18717;DHT22;9487;50.892;6.906;2023-06-14T03:04:07;19.40;99.90
18717;DHT22;9487;50.892;6.906;2023-06-14T03:06:36;19.50;99.90
18717;DHT22;9487;50.892;6.906;2023-06-14T03:09:05;19.70;99.90
18717;DHT22;9487;50.892;6.906;2023-06-14T03:11:33;19.80;99.90
18717;DHT22;9487;50.892;6.906;2023-06-14T03:14:00;19.90;99.90
18717;DHT22;9487;50.892;6.906;2023-06-14T03:16:29;19.90;99.90
18717;DHT22;9487;50.892;6.906;2023-06-14T03:18:57;19.90;99.90
18717;DHT22;9487;50.892;6.906;2023-06-14T03:21:25;20.00;99.90
18717;DHT22;9487;50.892;6.906;2023-06-14T03:23:54;20.00;99.90
18717;DHT22;9487;50.892;6.906;2023-06-14T03:26:21;20.00;99.90
18717;DHT22;9487;50.892;6.906;2023-06-14T03:28:48;20.00;99.90
18717;DHT22;9487;50.892;6.906;2023-06-14T03:31:16;20.00;99.90
18717;DHT22;9487;50.892;6.906;2023-06-14T03:33:43;20.00;99.90
18717;DHT22;9487;50.892;6.906;2023-06-14T03:36:11;20.00;99.90
18717;DHT22;9487;50.892;6.906;2023-06-14T03:38:38;20.00;99.60
18717;DHT22;9487;50.892;6.906;2023-06-14T03:41:09;20.00;99.00
18717;DHT22;9487;50.892;6.906;2023-06-14T03:43:37;20.00;99.00
18717;DHT22;9487;50.892;6.906;2023-06-14T03:46:04;20.00;99.10
18717;DHT22;9487;50.892;6.906;2023-06-14T03:48:31;20.00;98.40
18717;DHT22;9487;50.892;6.906;2023-06-14T03:50:59;20.00;98.10
18717;DHT22;9487;50.892;6.906;2023-06-14T03:53:27;20.10;97.40
18717;DHT22;9487;50.892;6.906;2023-06-14T03:55:55;20.00;97.30
18717;DHT22;9487;50.892;6.906;2023-06-14T03:58:24;20.00;97.70
18717;DHT22;9487;50.892;6.906;2023-06-14T04:00:52;20.10;97.50
18717;DHT22;9487;50.892;6.906;2023-06-14T04:03:19;20.10;97.30
18717;DHT22;9487;50.892;6.906;2023-06-14T04:05:55;20.10;97.20
18717;DHT22;9487;50.892;6.906;2023-06-14T04:08:25;20.10;96.90
18717;DHT22;9487;50.892;6.906;2023-06-14T04:10:55;20.10;96.60
18717;DHT22;9487;50.892;6.906;2023-06-14T04:13:24;20.20;96.50
18717;DHT22;9487;50.892;6.906;2023-06-14T04:15:51;20.30;95.60
18717;DHT22;9487;50.892;6.906;2023-06-14T04:18:18;20.30;95.60
18717;DHT22;9487;50.892;6.906;2023-06-14T04:20:46;20.30;95.20
18717;DHT22;9487;50.892;6.906;2023-06-14T04:23:14;20.40;94.70
18717;DHT22;9487;50.892;6.906;2023-06-14T04:25:41;20.50;94.30
18717;DHT22;9487;50.892;6.906;2023-06-14T04:28:10;20.50;93.70
18717;DHT22;9487;50.892;6.906;2023-06-14T04:30:39;20.60;93.00
18717;DHT22;9487;50.892;6.906;2023-06-14T04:33:07;20.60;92.70
18717;DHT22;9487;50.892;6.906;2023-06-14T04:35:36;20.70;92.40
18717;DHT22;9487;50.892;6.906;2023-06-14T04:38:03;20.80;92.20
18717;DHT22;9487;50.892;6.906;2023-06-14T04:40:35;20.80;92.20
18717;DHT22;9487;50.892;6.906;2023-06-14T04:43:08;20.80;92.10
18717;DHT22;9487;50.892;6.906;2023-06-14T04:45:39;20.90;91.60
18717;DHT22;9487;50.892;6.906;2023-06-14T04:48:10;21.00;91.50
18717;DHT22;9487;50.892;6.906;2023-06-14T04:50:37;21.00;90.50
18717;DHT22;9487;50.892;6.906;2023-06-14T04:53:07;21.10;90.50
18717;DHT22;9487;50.892;6.906;2023-06-14T04:55:34;21.10;90.40
18717;DHT22;9487;50.892;6.906;2023-06-14T04:58:01;21.20;90.30
18717;DHT22;9487;50.892;6.906;2023-06-14T05:00:28;21.30;90.30
18717;DHT22;9487;50.892;6.906;2023-06-14T05:02:57;21.40;89.80
18717;DHT22;9487;50.892;6.906;2023-06-14T05:05:26;21.50;88.20
18717;DHT22;9487;50.892;6.906;2023-06-14T05:07:53;21.60;85.90
18717;DHT22;9487;50.892;6.906;2023-06-14T05:10:20;21.70;84.50
18717;DHT22;9487;50.892;6.906;2023-06-14T05:12:47;21.60;82.70
18717;DHT22;9487;50.892;6.906;2023-06-14T05:15:14;21.50;82.60
18717;DHT22;9487;50.892;6.906;2023-06-14T05:17:41;21.60;83.00
18717;DHT22;9487;50.892;6.906;2023-06-14T05:20:10;21.60;83.40
18717;DHT22;9487;50.892;6.906;2023-06-14T05:22:38;21.80;82.20
18717;DHT22;9487;50.892;6.906;2023-06-14T05:25:05;21.90;82.10
18717;DHT22;9487;50.892;6.906;2023-06-14T05:27:41;22.00;79.20
18717;DHT22;9487;50.892;6.906;2023-06-14T05:30:10;22.10;77.40
18717;DHT22;9487;50.892;6.906;2023-06-14T05:32:37;22.10;76.50
18717;DHT22;9487;50.892;6.906;2023-06-14T05:35:06;21.80;75.40
18717;DHT22;9487;50.892;6.906;2023-06-14T05:37:35;21.70;75.90
18717;DHT22;9487;50.892;6.906;2023-06-14T05:40:02;21.70;76.70
18717;DHT22;9487;50.892;6.906;2023-06-14T05:42:31;21.70;76.30
18717;DHT22;9487;50.892;6.906;2023-06-14T05:44:58;21.80;73.90
18717;DHT22;9487;50.892;6.906;2023-06-14T05:47:25;21.90;75.20
18717;DHT22;9487;50.892;6.906;2023-06-14T05:49:53;22.00;74.50
18717;DHT22;9487;50.892;6.906;2023-06-14T05:52:21;22.10;74.60
18717;DHT22;9487;50.892;6.906;2023-06-14T05:54:49;22.10;73.20
18717;DHT22;9487;50.892;6.906;2023-06-14T05:57:16;22.20;74.90
18717;DHT22;9487;50.892;6.906;2023-06-14T05:59:43;22.50;77.40
18717;DHT22;9487;50.892;6.906;2023-06-14T06:02:10;22.60;73.60
18717;DHT22;9487;50.892;6.906;2023-06-14T06:04:37;22.80;72.60
18717;DHT22;9487;50.892;6.906;2023-06-14T06:07:04;23.00;72.10
18717;DHT22;9487;50.892;6.906;2023-06-14T06:09:33;23.00;69.40
18717;DHT22;9487;50.892;6.906;2023-06-14T06:12:02;23.00;67.60
18717;DHT22;9487;50.892;6.906;2023-06-14T06:14:29;22.90;68.90
18717;DHT22;9487;50.892;6.906;2023-06-14T06:16:56;23.00;68.10
18717;DHT22;9487;50.892;6.906;2023-06-14T06:19:23;23.00;67.60
18717;DHT22;9487;50.892;6.906;2023-06-14T06:21:51;23.10;66.30
18717;DHT22;9487;50.892;6.906;2023-06-14T06:24:19;23.20;65.20
18717;DHT22;9487;50.892;6.906;2023-06-14T06:26:46;23.10;64.90
18717;DHT22;9487;50.892;6.906;2023-06-14T06:29:15;23.20;65.70
18717;DHT22;9487;50.892;6.906;2023-06-14T06:31:42;23.30;64.40
18717;DHT22;9487;50.892;6.906;2023-06-14T06:34:09;23.30;64.60
18717;DHT22;9487;50.892;6.906;2023-06-14T06:36:36;23.30;64.10
18717;DHT22;9487;50.892;6.906;2023-06-14T06:39:03;23.30;63.30
18717;DHT22;9487;50.892;6.906;2023-06-14T06:41:35;23.10;63.60
18717;DHT22;9487;50.892;6.906;2023-06-14T06:44:03;22.70;63.60
18717;DHT22;9487;50.892;6.906;2023-06-14T06:46:32;22.90;63.70
18717;DHT22;9487;50.892;6.906;2023-06-14T06:49:00;23.10;64.80
18717;DHT22;9487;50.892;6.906;2023-06-14T06:51:27;23.30;64.40
18717;DHT22;9487;50.892;6.906;2023-06-14T06:53:54;23.30;65.00
18717;DHT22;9487;50.892;6.906;2023-06-14T06:56:22;23.40;63.30
18717;DHT22;9487;50.892;6.906;2023-06-14T06:58:50;23.40;63.40
18717;DHT22;9487;50.892;6.906;2023-06-14T07:01:17;23.50;63.10
18717;DHT22;9487;50.892;6.906;2023-06-14T07:03:46;23.70;61.40
18717;DHT22;9487;50.892;6.906;2023-06-14T07:06:13;23.70;60.70
18717;DHT22;9487;50.892;6.906;2023-06-14T07:08:42;23.90;60.50
18717;DHT22;9487;50.892;6.906;2023-06-14T07:11:10;23.90;59.70
18717;DHT22;9487;50.892;6.906;2023-06-14T07:13:37;23.90;60.10
18717;DHT22;9487;50.892;6.906;2023-06-14T07:16:04;23.90;61.90
18717;DHT22;9487;50.892;6.906;2023-06-14T07:18:31;24.00;59.90
18717;DHT22;9487;50.892;6.906;2023-06-14T07:21:00;23.90;60.90
18717;DHT22;9487;50.892;6.906;2023-06-14T07:23:27;23.90;60.00
18717;DHT22;9487;50.892;6.906;2023-06-14T07:25:54;23.10;61.30
18717;DHT22;9487;50.892;6.906;2023-06-14T07:28:21;23.00;61.80
18717;DHT22;9487;50.892;6.906;2023-06-14T07:30:48;23.20;63.20
18717;DHT22;9487;50.892;6.906;2023-06-14T07:33:15;23.50;62.40
18717;DHT22;9487;50.892;6.906;2023-06-14T07:35:42;23.80;59.90
18717;DHT22;9487;50.892;6.906;2023-06-14T07:38:11;24.00;60.30
18717;DHT22;9487;50.892;6.906;2023-06-14T07:40:38;24.20;60.20
18717;DHT22;9487;50.892;6.906;2023-06-14T07:43:05;24.30;59.60
18717;DHT22;9487;50.892;6.906;2023-06-14T07:45:32;24.40;58.30
18717;DHT22;9487;50.892;6.906;2023-06-14T07:47:59;24.40;57.50
18717;DHT22;9487;50.892;6.906;2023-06-14T07:50:26;24.30;58.10
18717;DHT22;9487;50.892;6.906;2023-06-14T07:52:54;24.40;57.70
18717;DHT22;9487;50.892;6.906;2023-06-14T07:55:22;24.50;57.50
18717;DHT22;9487;50.892;6.906;2023-06-14T07:57:50;24.50;57.00
18717;DHT22;9487;50.892;6.906;2023-06-14T08:00:19;24.60;57.90
18717;DHT22;9487;50.892;6.906;2023-06-14T08:02:46;24.70;57.00
18717;DHT22;9487;50.892;6.906;2023-06-14T08:05:13;24.60;55.20
18717;DHT22;9487;50.892;6.906;2023-06-14T08:07:40;24.30;55.20
18717;DHT22;9487;50.892;6.906;2023-06-14T08:10:08;24.20;54.40
18717;DHT22;9487;50.892;6.906;2023-06-14T08:12:37;23.70;51.80
18717;DHT22;9487;50.892;6.906;2023-06-14T08:15:04;23.60;53.00
18717;DHT22;9487;50.892;6.906;2023-06-14T08:17:32;23.80;49.10
18717;DHT22;9487;50.892;6.906;2023-06-14T08:19:58;23.70;48.10
18717;DHT22;9487;50.892;6.906;2023-06-14T08:22:26;23.30;48.30
18717;DHT22;9487;50.892;6.906;2023-06-14T08:24:57;23.50;49.10
18717;DHT22;9487;50.892;6.906;2023-06-14T08:27:24;23.90;48.70
18717;DHT22;9487;50.892;6.906;2023-06-14T08:29:52;24.00;48.70
18717;DHT22;9487;50.892;6.906;2023-06-14T08:32:19;24.10;46.60
18717;DHT22;9487;50.892;6.906;2023-06-14T08:34:47;24.20;45.30
18717;DHT22;9487;50.892;6.906;2023-06-14T08:37:14;24.50;44.40
18717;DHT22;9487;50.892;6.906;2023-06-14T08:39:41;24.30;45.00
18717;DHT22;9487;50.892;6.906;2023-06-14T08:42:10;24.50;44.80
18717;DHT22;9487;50.892;6.906;2023-06-14T08:44:39;24.70;44.70
18717;DHT22;9487;50.892;6.906;2023-06-14T08:47:07;24.80;43.10
18717;DHT22;9487;50.892;6.906;2023-06-14T08:49:38;24.70;42.60
18717;DHT22;9487;50.892;6.906;2023-06-14T08:52:08;24.70;42.10
18717;DHT22;9487;50.892;6.906;2023-06-14T08:54:36;24.90;43.20
18717;DHT22;9487;50.892;6.906;2023-06-14T08:57:10;24.80;41.80
18717;DHT22;9487;50.892;6.906;2023-06-14T08:59:45;25.00;41.50
18717;DHT22;9487;50.892;6.906;2023-06-14T09:02:16;25.10;42.30
18717;DHT22;9487;50.892;6.906;2023-06-14T09:04:45;24.80;40.30
18717;DHT22;9487;50.892;6.906;2023-06-14T09:07:15;24.90;40.70
18717;DHT22;9487;50.892;6.906;2023-06-14T09:09:44;24.90;40.40
18717;DHT22;9487;50.892;6.906;2023-06-14T09:12:11;24.40;41.40
18717;DHT22;9487;50.892;6.906;2023-06-14T09:14:39;24.70;41.90
18717;DHT22;9487;50.892;6.906;2023-06-14T09:17:08;24.90;42.30
18717;DHT22;9487;50.892;6.906;2023-06-14T09:19:36;24.70;40.60
18717;DHT22;9487;50.892;6.906;2023-06-14T09:22:04;24.40;40.60
18717;DHT22;9487;50.892;6.906;2023-06-14T09:24:31;24.20;41.20
18717;DHT22;9487;50.892;6.906;2023-06-14T09:27:01;24.20;41.50
18717;DHT22;9487;50.892;6.906;2023-06-14T09:29:29;24.60;42.20
18717;DHT22;9487;50.892;6.906;2023-06-14T09:31:58;24.80;43.90
18717;DHT22;9487;50.892;6.906;2023-06-14T09:34:26;24.50;41.20
18717;DHT22;9487;50.892;6.906;2023-06-14T09:36:55;24.60;42.00
18717;DHT22;9487;50.892;6.906;2023-06-14T09:39:22;24.90;41.40
18717;DHT22;9487;50.892;6.906;2023-06-14T09:41:50;25.20;42.50
18717;DHT22;9487;50.892;6.906;2023-06-14T09:44:21;24.80;41.10
18717;DHT22;9487;50.892;6.906;2023-06-14T09:46:51;25.00;41.10
18717;DHT22;9487;50.892;6.906;2023-06-14T09:49:18;25.20;41.80
18717;DHT22;9487;50.892;6.906;2023-06-14T09:51:49;25.00;40.50
18717;DHT22;9487;50.892;6.906;2023-06-14T09:54:22;24.60;41.10
18717;DHT22;9487;50.892;6.906;2023-06-14T09:56:51;24.60;41.40
18717;DHT22;9487;50.892;6.906;2023-06-14T09:59:20;24.30;41.70
18717;DHT22;9487;50.892;6.906;2023-06-14T10:01:52;24.40;42.80
18717;DHT22;9487;50.892;6.906;2023-06-14T10:04:24;24.80;42.90
18717;DHT22;9487;50.892;6.906;2023-06-14T10:06:54;24.80;41.20
18717;DHT22;9487;50.892;6.906;2023-06-14T10:09:22;24.80;41.10
18717;DHT22;9487;50.892;6.906;2023-06-14T10:11:51;25.20;40.70
18717;DHT22;9487;50.892;6.906;2023-06-14T10:14:19;25.20;40.70
18717;DHT22;9487;50.892;6.906;2023-06-14T10:16:54;25.20;40.50
18717;DHT22;9487;50.892;6.906;2023-06-14T10:19:25;24.50;40.80
18717;DHT22;9487;50.892;6.906;2023-06-14T10:22:04;24.70;41.20
18717;DHT22;9487;50.892;6.906;2023-06-14T10:24:40;25.00;41.20
18717;DHT22;9487;50.892;6.906;2023-06-14T10:27:08;24.90;40.60
18717;DHT22;9487;50.892;6.906;2023-06-14T10:30:05;24.80;40.80
18717;DHT22;9487;50.892;6.906;2023-06-14T10:32:34;24.40;40.90
18717;DHT22;9487;50.892;6.906;2023-06-14T10:35:04;23.80;40.60
18717;DHT22;9487;50.892;6.906;2023-06-14T10:37:31;23.90;41.60
18717;DHT22;9487;50.892;6.906;2023-06-14T10:40:00;24.20;42.00
18717;DHT22;9487;50.892;6.906;2023-06-14T10:42:32;24.40;40.80
18717;DHT22;9487;50.892;6.906;2023-06-14T10:45:00;24.30;39.50
18717;DHT22;9487;50.892;6.906;2023-06-14T10:47:28;24.00;40.00
18717;DHT22;9487;50.892;6.906;2023-06-14T10:50:05;24.10;39.90
18717;DHT22;9487;50.892;6.906;2023-06-14T10:52:34;24.70;41.40
18717;DHT22;9487;50.892;6.906;2023-06-14T10:55:09;25.20;40.60
18717;DHT22;9487;50.892;6.906;2023-06-14T10:57:39;25.00;40.50
18717;DHT22;9487;50.892;6.906;2023-06-14T11:00:08;24.20;40.30
18717;DHT22;9487;50.892;6.906;2023-06-14T11:05:43;24.30;41.50
18717;DHT22;9487;50.892;6.906;2023-06-14T11:08:30;24.80;40.00
18717;DHT22;9487;50.892;6.906;2023-06-14T11:11:06;25.10;39.60
18717;DHT22;9487;50.892;6.906;2023-06-14T11:13:34;25.20;40.10
18717;DHT22;9487;50.892;6.906;2023-06-14T11:16:10;25.40;39.70
18717;DHT22;9487;50.892;6.906;2023-06-14T11:18:37;25.50;40.60
18717;DHT22;9487;50.892;6.906;2023-06-14T11:21:04;25.80;40.60
18717;DHT22;9487;50.892;6.906;2023-06-14T11:23:31;25.50;40.40
18717;DHT22;9487;50.892;6.906;2023-06-14T11:25:58;25.10;41.00
18717;DHT22;9487;50.892;6.906;2023-06-14T11:28:38;25.10;41.60
18717;DHT22;9487;50.892;6.906;2023-06-14T11:31:06;25.40;41.70
18717;DHT22;9487;50.892;6.906;2023-06-14T11:33:33;25.70;41.70
18717;DHT22;9487;50.892;6.906;2023-06-14T11:36:02;25.90;41.20
18717;DHT22;9487;50.892;6.906;2023-06-14T11:38:35;26.10;40.60
18717;DHT22;9487;50.892;6.906;2023-06-14T11:41:03;25.70;42.10
18717;DHT22;9487;50.892;6.906;2023-06-14T11:43:32;25.70;42.90
18717;DHT22;9487;50.892;6.906;2023-06-14T11:46:00;24.70;44.10
18717;DHT22;9487;50.892;6.906;2023-06-14T11:48:36;24.60;45.10
18717;DHT22;9487;50.892;6.906;2023-06-14T11:51:03;25.00;45.90
18717;DHT22;9487;50.892;6.906;2023-06-14T11:53:30;25.40;45.40
18717;DHT22;9487;50.892;6.906;2023-06-14T11:55:57;25.70;44.60
18717;DHT22;9487;50.892;6.906;2023-06-14T11:58:25;25.80;44.20
18717;DHT22;9487;50.892;6.906;2023-06-14T12:00:54;26.00;44.30
18717;DHT22;9487;50.892;6.906;2023-06-14T12:03:25;26.30;44.70
18717;DHT22;9487;50.892;6.906;2023-06-14T12:06:05;26.60;43.80
18717;DHT22;9487;50.892;6.906;2023-06-14T12:08:36;26.60;42.00
18717;DHT22;9487;50.892;6.906;2023-06-14T12:11:07;26.60;42.50
18717;DHT22;9487;50.892;6.906;2023-06-14T12:13:38;26.20;42.70
18717;DHT22;9487;50.892;6.906;2023-06-14T12:16:08;25.90;43.50
18717;DHT22;9487;50.892;6.906;2023-06-14T12:18:38;26.10;43.70
18717;DHT22;9487;50.892;6.906;2023-06-14T12:21:08;26.30;43.70
18717;DHT22;9487;50.892;6.906;2023-06-14T12:23:43;25.90;43.00
18717;DHT22;9487;50.892;6.906;2023-06-14T12:26:13;25.30;43.10
18717;DHT22;9487;50.892;6.906;2023-06-14T12:28:41;25.50;44.50
18717;DHT22;9487;50.892;6.906;2023-06-14T12:31:12;26.00;44.60
18717;DHT22;9487;50.892;6.906;2023-06-14T12:33:40;26.40;44.20
18717;DHT22;9487;50.892;6.906;2023-06-14T12:36:08;26.80;43.70
18717;DHT22;9487;50.892;6.906;2023-06-14T12:38:35;27.00;43.70
18717;DHT22;9487;50.892;6.906;2023-06-14T12:41:04;27.30;42.60
18717;DHT22;9487;50.892;6.906;2023-06-14T12:43:33;27.50;42.10
18717;DHT22;9487;50.892;6.906;2023-06-14T12:46:00;27.70;41.90
18717;DHT22;9487;50.892;6.906;2023-06-14T12:48:29;27.70;42.20
18717;DHT22;9487;50.892;6.906;2023-06-14T12:50:57;27.70;41.30
18717;DHT22;9487;50.892;6.906;2023-06-14T12:53:24;27.80;41.60
18717;DHT22;9487;50.892;6.906;2023-06-14T12:55:51;27.90;42.00
18717;DHT22;9487;50.892;6.906;2023-06-14T12:58:18;27.90;41.60
18717;DHT22;9487;50.892;6.906;2023-06-14T13:00:46;27.70;41.70
18717;DHT22;9487;50.892;6.906;2023-06-14T13:03:13;27.60;41.70
18717;DHT22;9487;50.892;6.906;2023-06-14T13:05:44;27.50;42.00
18717;DHT22;9487;50.892;6.906;2023-06-14T13:08:11;27.30;41.60
18717;DHT22;9487;50.892;6.906;2023-06-14T13:10:38;27.20;41.80
18717;DHT22;9487;50.892;6.906;2023-06-14T13:13:05;27.30;41.10
18717;DHT22;9487;50.892;6.906;2023-06-14T13:15:34;27.50;41.10
18717;DHT22;9487;50.892;6.906;2023-06-14T13:18:01;27.10;40.20
18717;DHT22;9487;50.892;6.906;2023-06-14T13:20:28;27.00;40.70
18717;DHT22;9487;50.892;6.906;2023-06-14T13:22:57;27.10;39.80
18717;DHT22;9487;50.892;6.906;2023-06-14T13:25:24;27.20;39.80
18717;DHT22;9487;50.892;6.906;2023-06-14T13:27:51;27.40;40.40
18717;DHT22;9487;50.892;6.906;2023-06-14T13:30:19;27.20;39.70
18717;DHT22;9487;50.892;6.906;2023-06-14T13:32:47;27.30;40.10
18717;DHT22;9487;50.892;6.906;2023-06-14T13:35:17;27.40;40.50
18717;DHT22;9487;50.892;6.906;2023-06-14T13:37:44;27.20;39.90
18717;DHT22;9487;50.892;6.906;2023-06-14T13:40:14;27.10;39.60
18717;DHT22;9487;50.892;6.906;2023-06-14T13:42:41;27.30;39.70
18717;DHT22;9487;50.892;6.906;2023-06-14T13:45:11;27.50;39.50
18717;DHT22;9487;50.892;6.906;2023-06-14T13:47:38;27.60;39.20
18717;DHT22;9487;50.892;6.906;2023-06-14T13:50:06;27.00;39.60
18717;DHT22;9487;50.892;6.906;2023-06-14T13:52:35;27.20;40.40
18717;DHT22;9487;50.892;6.906;2023-06-14T13:55:04;27.30;40.00
18717;DHT22;9487;50.892;6.906;2023-06-14T13:57:33;27.50;39.90
18717;DHT22;9487;50.892;6.906;2023-06-14T14:00:03;27.40;38.70
18717;DHT22;9487;50.892;6.906;2023-06-14T14:02:31;27.50;39.20
18717;DHT22;9487;50.892;6.906;2023-06-14T14:04:58;27.70;39.30
18717;DHT22;9487;50.892;6.906;2023-06-14T14:07:25;27.80;38.60
18717;DHT22;9487;50.892;6.906;2023-06-14T14:09:55;28.00;38.70
18717;DHT22;9487;50.892;6.906;2023-06-14T14:12:23;28.10;37.60
18717;DHT22;9487;50.892;6.906;2023-06-14T14:14:52;28.00;36.60
18717;DHT22;9487;50.892;6.906;2023-06-14T14:17:20;28.00;36.80
18717;DHT22;9487;50.892;6.906;2023-06-14T14:19:46;27.70;36.50
18717;DHT22;9487;50.892;6.906;2023-06-14T14:22:14;27.70;36.80
18717;DHT22;9487;50.892;6.906;2023-06-14T14:24:40;27.70;37.50
18717;DHT22;9487;50.892;6.906;2023-06-14T14:27:07;27.90;38.40
18717;DHT22;9487;50.892;6.906;2023-06-14T14:29:34;28.00;38.20
18717;DHT22;9487;50.892;6.906;2023-06-14T14:32:03;27.50;37.80
18717;DHT22;9487;50.892;6.906;2023-06-14T14:34:31;27.60;37.30
18717;DHT22;9487;50.892;6.906;2023-06-14T14:36:58;27.60;37.50
18717;DHT22;9487;50.892;6.906;2023-06-14T14:39:25;27.80;38.10
18717;DHT22;9487;50.892;6.906;2023-06-14T14:41:53;27.10;37.70
18717;DHT22;9487;50.892;6.906;2023-06-14T14:44:20;27.00;38.00
18717;DHT22;9487;50.892;6.906;2023-06-14T14:46:47;26.70;38.60
18717;DHT22;9487;50.892;6.906;2023-06-14T14:49:15;26.80;38.90
18717;DHT22;9487;50.892;6.906;2023-06-14T14:51:42;27.10;39.20
18717;DHT22;9487;50.892;6.906;2023-06-14T14:54:10;27.40;38.90
18717;DHT22;9487;50.892;6.906;2023-06-14T14:56:37;27.40;38.60
18717;DHT22;9487;50.892;6.906;2023-06-14T14:59:04;27.30;39.00
18717;DHT22;9487;50.892;6.906;2023-06-14T15:01:31;27.60;39.30
18717;DHT22;9487;50.892;6.906;2023-06-14T15:03:58;28.00;38.40
18717;DHT22;9487;50.892;6.906;2023-06-14T15:06:28;28.40;38.60
18717;DHT22;9487;50.892;6.906;2023-06-14T15:08:56;28.50;37.50
18717;DHT22;9487;50.892;6.906;2023-06-14T15:11:22;28.70;36.50
18717;DHT22;9487;50.892;6.906;2023-06-14T15:13:49;28.90;36.50
18717;DHT22;9487;50.892;6.906;2023-06-14T15:16:16;29.00;36.50
18717;DHT22;9487;50.892;6.906;2023-06-14T15:18:43;29.10;36.50
18717;DHT22;9487;50.892;6.906;2023-06-14T15:21:11;29.30;36.70
18717;DHT22;9487;50.892;6.906;2023-06-14T15:23:40;29.60;36.50
18717;DHT22;9487;50.892;6.906;2023-06-14T15:26:07;29.40;36.10
18717;DHT22;9487;50.892;6.906;2023-06-14T15:28:34;29.20;36.10
18717;DHT22;9487;50.892;6.906;2023-06-14T15:31:01;29.00;35.90
18717;DHT22;9487;50.892;6.906;2023-06-14T15:33:28;28.90;36.50
18717;DHT22;9487;50.892;6.906;2023-06-14T15:35:56;29.00;36.60
18717;DHT22;9487;50.892;6.906;2023-06-14T15:38:23;28.90;36.80
18717;DHT22;9487;50.892;6.906;2023-06-14T15:40:52;29.00;36.50
18717;DHT22;9487;50.892;6.906;2023-06-14T15:43:19;29.00;36.30
18717;DHT22;9487;50.892;6.906;2023-06-14T15:45:48;29.20;36.30
18717;DHT22;9487;50.892;6.906;2023-06-14T15:48:15;28.50;36.80
18717;DHT22;9487;50.892;6.906;2023-06-14T15:50:42;28.60;36.30
18717;DHT22;9487;50.892;6.906;2023-06-14T15:53:10;28.90;36.60
18717;DHT22;9487;50.892;6.906;2023-06-14T15:55:37;28.90;36.00